N805AB KASE-
Flight info
| Callsign | N805AB |
|---|---|
| Flight time | N/A |
| Altitude | VFR |
| Route | VFR EAST FF |
| Aircraft | P38/M-VGD/C |
Departure
| Time | 2026-04-22 00:52 |
|---|---|
| Airport | Aspen-Pitkin County Airport (Sardy Field) (KASE) |
Arrival
| Time | N/A |
|---|---|
| Airport | - |
| Time | Latitude | Longitude | Altitude | Speed | Heading |
|---|---|---|---|---|---|
| 2026-04-22 00:41 | 39.22383 | -106.86753 | 7753 ft | 0 kts | 73° |
| 2026-04-22 00:42 | 39.22400 | -106.86754 | 7752 ft | 2 kts | 298° |
| 2026-04-22 00:42 | 39.22404 | -106.86764 | 7752 ft | 2 kts | 297° |
| 2026-04-22 00:43 | 39.22447 | -106.86818 | 7748 ft | 15 kts | 327° |
| 2026-04-22 00:43 | 39.22508 | -106.86859 | 7743 ft | 2 kts | 340° |
| 2026-04-22 00:43 | 39.22513 | -106.86861 | 7743 ft | 0 kts | 339° |
| 2026-04-22 00:43 | 39.22529 | -106.86868 | 7741 ft | 7 kts | 345° |
| 2026-04-22 00:44 | 39.22586 | -106.86873 | 7738 ft | 5 kts | 315° |
| 2026-04-22 00:44 | 39.22558 | -106.86878 | 7739 ft | 7 kts | 159° |
| 2026-04-22 00:44 | 39.22507 | -106.86853 | 7743 ft | 9 kts | 159° |
| 2026-04-22 00:44 | 39.22446 | -106.86823 | 7748 ft | 10 kts | 159° |
| 2026-04-22 00:45 | 39.22378 | -106.86786 | 7753 ft | 1 kts | 155° |
| 2026-04-22 00:45 | 39.22332 | -106.86765 | 7756 ft | 22 kts | 161° |
| 2026-04-22 00:45 | 39.22199 | -106.86704 | 7766 ft | 17 kts | 158° |
| 2026-04-22 00:45 | 39.22092 | -106.86645 | 7775 ft | 16 kts | 160° |
| 2026-04-22 00:46 | 39.21988 | -106.86597 | 7783 ft | 15 kts | 161° |
| 2026-04-22 00:46 | 39.21889 | -106.86555 | 7791 ft | 14 kts | 161° |
| 2026-04-22 00:46 | 39.21796 | -106.86513 | 7799 ft | 14 kts | 160° |
| 2026-04-22 00:46 | 39.21703 | -106.86468 | 7806 ft | 14 kts | 159° |
| 2026-04-22 00:47 | 39.21610 | -106.86426 | 7813 ft | 14 kts | 161° |
| 2026-04-22 00:47 | 39.21542 | -106.86396 | 7818 ft | 1 kts | 159° |
| 2026-04-22 00:47 | 39.21541 | -106.86396 | 7818 ft | 0 kts | 159° |
| 2026-04-22 00:48 | 39.21498 | -106.86375 | 7821 ft | 11 kts | 159° |
| 2026-04-22 00:48 | 39.21421 | -106.86337 | 7827 ft | 12 kts | 159° |
| 2026-04-22 00:48 | 39.21324 | -106.86291 | 7832 ft | 17 kts | 160° |
| 2026-04-22 00:49 | 39.21221 | -106.86249 | 7842 ft | 7 kts | 193° |
| 2026-04-22 00:49 | 39.21217 | -106.86250 | 7838 ft | 0 kts | 204° |
| 2026-04-22 00:50 | 39.21199 | -106.86264 | 7840 ft | 10 kts | 219° |
| 2026-04-22 00:50 | 39.21184 | -106.86345 | 7840 ft | 7 kts | 337° |
| 2026-04-22 00:51 | 39.21254 | -106.86379 | 7839 ft | 16 kts | 339° |
| 2026-04-22 00:51 | 39.21487 | -106.86491 | 7824 ft | 77 kts | 340° |
| 2026-04-22 00:51 | 39.22250 | -106.86853 | 7783 ft | 151 kts | 339° |
| 2026-04-22 00:51 | 39.23348 | -106.87376 | 8054 ft | 182 kts | 341° |
| 2026-04-22 00:52 | 39.24692 | -106.87557 | 8267 ft | 209 kts | 0° |
| 2026-04-22 00:52 | 39.26181 | -106.87435 | 8599 ft | 216 kts | 2° |
| 2026-04-22 00:52 | 39.27601 | -106.87354 | 9551 ft | 196 kts | 359° |
| 2026-04-22 00:52 | 39.28967 | -106.87224 | 9982 ft | 200 kts | 2° |
| 2026-04-22 00:53 | 39.30337 | -106.87107 | 10313 ft | 195 kts | 359° |
| 2026-04-22 00:53 | 39.31687 | -106.87191 | 10701 ft | 196 kts | 353° |
| 2026-04-22 00:53 | 39.33057 | -106.87328 | 11044 ft | 197 kts | 353° |